createdAt,value
2022-11-09T00:02:06.023Z,60.10
2022-11-09T00:04:36.170Z,60.42
2022-11-09T00:07:06.291Z,60.46
2022-11-09T00:09:36.457Z,60.27
2022-11-09T00:12:07.587Z,60.40
2022-11-09T00:14:38.868Z,60.09
2022-11-09T00:17:11.805Z,59.84
2022-11-09T00:19:41.910Z,59.86
2022-11-09T00:22:12.454Z,59.93
2022-11-09T00:24:42.542Z,59.57
2022-11-09T00:27:17.350Z,59.83
2022-11-09T00:29:47.761Z,59.57
2022-11-09T00:32:27.620Z,59.78
2022-11-09T00:34:58.094Z,59.92
2022-11-09T00:37:28.243Z,59.67
2022-11-09T00:39:58.295Z,59.68
2022-11-09T00:42:30.560Z,59.57
2022-11-09T00:45:00.773Z,59.37
2022-11-09T00:47:33.478Z,58.90
2022-11-09T00:50:03.654Z,59.07
2022-11-09T00:52:33.730Z,58.95
2022-11-09T00:55:03.944Z,58.52
2022-11-09T00:57:34.527Z,58.54
2022-11-09T01:00:04.591Z,58.35
2022-11-09T01:02:37.221Z,58.54
2022-11-09T01:05:08.804Z,58.33
2022-11-09T01:07:40.189Z,58.15
2022-11-09T01:10:11.753Z,58.07
2022-11-09T01:12:42.003Z,58.00
2022-11-09T01:15:13.136Z,57.77
2022-11-09T01:17:46.138Z,57.60
2022-11-09T01:20:16.579Z,57.42
2022-11-09T01:22:47.054Z,57.38
2022-11-09T01:25:17.285Z,57.21
2022-11-09T01:27:47.679Z,56.72
2022-11-09T01:30:17.892Z,56.76
2022-11-09T01:32:50.541Z,56.52
2022-11-09T01:35:20.730Z,56.21
2022-11-09T01:37:50.955Z,56.08
2022-11-09T01:40:21.286Z,55.87
2022-11-09T01:42:51.389Z,56.02
2022-11-09T01:45:28.441Z,55.83
2022-11-09T01:48:08.126Z,55.62
2022-11-09T01:50:44.129Z,55.95
2022-11-09T01:53:22.331Z,55.83
2022-11-09T01:55:56.341Z,56.00
2022-11-09T01:58:31.265Z,55.46
2022-11-09T02:01:05.224Z,55.38
2022-11-09T02:03:44.661Z,55.55
2022-11-09T02:06:19.545Z,55.00
2022-11-09T02:08:51.580Z,55.20
2022-11-09T02:11:25.187Z,54.98
2022-11-09T02:14:01.160Z,55.08
2022-11-09T02:16:32.376Z,54.69
2022-11-09T02:19:05.162Z,54.71
2022-11-09T02:21:38.012Z,55.16
2022-11-09T02:24:09.557Z,55.35
2022-11-09T02:26:47.475Z,55.29
2022-11-09T02:29:21.929Z,55.23
2022-11-09T02:31:57.864Z,54.98
2022-11-09T02:34:28.757Z,54.95
2022-11-09T02:37:03.559Z,54.81
2022-11-09T02:39:35.448Z,55.16
2022-11-09T02:42:11.472Z,54.97
2022-11-09T02:44:48.262Z,55.12
2022-11-09T02:47:18.506Z,55.09
2022-11-09T02:49:50.534Z,54.99
2022-11-09T02:52:23.498Z,55.01
2022-11-09T02:54:55.169Z,55.01
2022-11-09T02:57:25.258Z,55.08
2022-11-09T02:59:55.375Z,54.89
2022-11-09T03:02:25.730Z,54.56
2022-11-09T03:04:55.844Z,54.51
2022-11-09T03:07:28.642Z,54.39
2022-11-09T03:09:59.632Z,54.35
2022-11-09T03:12:33.365Z,54.05
2022-11-09T03:15:15.338Z,54.14
2022-11-09T03:17:48.637Z,54.23
2022-11-09T03:20:20.588Z,54.05
2022-11-09T03:22:54.571Z,54.26
2022-11-09T03:25:24.742Z,53.92
2022-11-09T03:28:00.741Z,53.73
2022-11-09T03:30:31.506Z,53.67
2022-11-09T03:33:02.916Z,53.72
2022-11-09T03:35:34.059Z,54.04
2022-11-09T03:38:07.748Z,54.74
2022-11-09T03:40:39.170Z,54.86
2022-11-09T03:43:09.719Z,54.66
2022-11-09T03:45:39.998Z,54.45
2022-11-09T03:48:10.235Z,54.55
2022-11-09T03:50:41.203Z,54.41
2022-11-09T03:53:14.043Z,54.42
2022-11-09T03:55:44.554Z,54.55
2022-11-09T03:58:15.283Z,54.46
2022-11-09T04:00:45.515Z,54.46
2022-11-09T04:03:15.756Z,54.40
2022-11-09T04:05:45.829Z,54.24
2022-11-09T04:08:18.546Z,54.40
2022-11-09T04:10:48.725Z,54.65
2022-11-09T04:13:19.237Z,54.36
2022-11-09T04:15:49.493Z,54.37
2022-11-09T04:18:20.287Z,54.39
2022-11-09T04:20:50.422Z,54.17
2022-11-09T04:23:23.259Z,54.36
2022-11-09T04:25:53.601Z,54.11
2022-11-09T04:28:23.785Z,53.89
2022-11-09T04:30:53.803Z,53.92
2022-11-09T04:33:24.079Z,53.92
2022-11-09T04:35:54.210Z,54.14
2022-11-09T04:38:26.891Z,54.25
2022-11-09T04:40:56.985Z,54.24
2022-11-09T04:43:27.006Z,54.33
2022-11-09T04:45:57.326Z,54.75
2022-11-09T04:48:27.462Z,54.88
2022-11-09T04:51:03.429Z,55.07
2022-11-09T04:53:37.478Z,55.29
2022-11-09T04:56:09.294Z,55.33
2022-11-09T04:58:39.391Z,55.52
2022-11-09T05:01:12.736Z,55.75
2022-11-09T05:03:43.728Z,55.87
2022-11-09T05:06:26.697Z,55.90
2022-11-09T05:08:59.963Z,56.15
2022-11-09T05:11:30.373Z,56.25
2022-11-09T05:14:00.629Z,56.49
2022-11-09T05:16:32.481Z,56.82
2022-11-09T05:19:02.733Z,56.90
2022-11-09T05:21:32.902Z,56.95
2022-11-09T05:24:03.163Z,56.87
2022-11-09T05:26:36.009Z,56.39
2022-11-09T05:29:09.895Z,56.64
2022-11-09T05:31:41.984Z,56.51
2022-11-09T05:34:16.080Z,56.29
2022-11-09T05:36:46.251Z,56.42
2022-11-09T05:39:18.942Z,56.13
2022-11-09T05:41:49.077Z,56.16
2022-11-09T05:44:19.131Z,55.72
2022-11-09T05:46:49.194Z,55.92
2022-11-09T05:49:19.389Z,56.08
2022-11-09T05:51:49.546Z,56.40
2022-11-09T05:54:22.250Z,56.59
2022-11-09T05:56:52.291Z,56.75
2022-11-09T05:59:22.443Z,56.93
2022-11-09T06:01:52.633Z,57.24
2022-11-09T06:04:22.789Z,57.71
2022-11-09T06:06:52.919Z,57.88
2022-11-09T06:09:25.636Z,57.28
2022-11-09T06:11:55.744Z,57.33
2022-11-09T06:14:25.875Z,57.65
2022-11-09T06:16:56.110Z,57.49
2022-11-09T06:19:26.375Z,57.56
2022-11-09T06:21:56.375Z,57.75
2022-11-09T06:24:29.112Z,58.13
2022-11-09T06:27:00.152Z,58.67
2022-11-09T06:29:30.287Z,58.70
2022-11-09T06:32:00.342Z,58.99
2022-11-09T06:34:30.783Z,59.42
2022-11-09T06:37:01.011Z,60.06
2022-11-09T06:39:33.748Z,60.80
2022-11-09T06:42:04.199Z,60.99
2022-11-09T06:44:34.291Z,61.26
2022-11-09T06:47:04.334Z,61.66
2022-11-09T06:49:34.483Z,61.46
2022-11-09T06:52:04.770Z,61.55
2022-11-09T06:54:37.500Z,62.03
2022-11-09T06:57:07.784Z,63.00
2022-11-09T06:59:40.724Z,63.84
2022-11-09T07:02:12.287Z,64.19
2022-11-09T07:04:42.441Z,63.87
2022-11-09T07:07:13.171Z,64.42
2022-11-09T07:09:46.014Z,65.01
2022-11-09T07:12:16.257Z,64.97
2022-11-09T07:14:46.483Z,64.58
2022-11-09T07:17:16.641Z,64.75
2022-11-09T07:19:46.873Z,64.79
2022-11-09T07:22:17.165Z,64.63
2022-11-09T07:24:49.957Z,64.53
2022-11-09T07:27:23.611Z,64.94
2022-11-09T07:29:57.516Z,64.80
2022-11-09T07:32:53.790Z,64.82
2022-11-09T07:35:17.975Z,65.10
2022-11-09T07:37:48.097Z,64.95
2022-11-09T07:40:20.946Z,65.04
2022-11-09T07:42:51.100Z,65.19
2022-11-09T07:45:21.225Z,64.95
2022-11-09T07:47:51.301Z,65.02
2022-11-09T07:50:21.595Z,65.63
2022-11-09T07:52:51.719Z,65.33
2022-11-09T07:55:24.422Z,65.19
2022-11-09T07:57:59.351Z,64.65
2022-11-09T08:00:31.768Z,64.70
2022-11-09T08:03:02.184Z,65.04
2022-11-09T08:05:32.856Z,65.37
2022-11-09T08:08:06.457Z,65.35
2022-11-09T08:10:40.535Z,65.25
2022-11-09T08:13:14.648Z,66.00
2022-11-09T08:15:46.263Z,66.16
2022-11-09T08:18:20.092Z,66.50
2022-11-09T08:20:50.661Z,67.25
2022-11-09T08:23:23.254Z,68.05
2022-11-09T08:25:56.047Z,69.29
2022-11-09T08:28:26.781Z,69.86
2022-11-09T08:31:02.669Z,69.67
2022-11-09T08:33:37.016Z,69.92
2022-11-09T08:36:13.274Z,70.69
2022-11-09T08:38:44.698Z,72.16
2022-11-09T08:41:17.630Z,73.00
2022-11-09T08:43:47.786Z,73.69
2022-11-09T08:46:17.910Z,74.70
2022-11-09T08:48:48.164Z,75.10
2022-11-09T08:51:18.282Z,76.98
2022-11-09T08:53:48.609Z,78.48
2022-11-09T08:56:21.758Z,79.70
2022-11-09T08:58:51.976Z,79.81
2022-11-09T09:01:22.175Z,80.37
2022-11-09T09:03:52.358Z,80.34
2022-11-09T09:06:25.689Z,79.46
2022-11-09T09:08:58.353Z,80.26
2022-11-09T09:11:31.149Z,80.17
2022-11-09T09:14:01.361Z,80.67
2022-11-09T09:16:31.904Z,82.00
2022-11-09T09:19:02.122Z,81.05
2022-11-09T09:21:32.282Z,79.70
2022-11-09T09:24:02.308Z,79.94
2022-11-09T09:26:35.260Z,80.46
2022-11-09T09:29:05.613Z,80.43
2022-11-09T09:31:35.830Z,80.07
2022-11-09T09:34:06.218Z,79.80
2022-11-09T09:36:36.305Z,80.55
2022-11-09T09:39:06.994Z,79.40
2022-11-09T09:41:49.504Z,80.05
2022-11-09T09:44:28.290Z,80.63
2022-11-09T09:47:10.822Z,80.65
2022-11-09T09:49:49.306Z,79.30
2022-11-09T09:52:29.457Z,78.59
2022-11-09T09:55:07.156Z,79.03
2022-11-09T09:57:42.411Z,76.94
2022-11-09T10:00:28.728Z,76.08
2022-11-09T10:02:59.070Z,74.58
2022-11-09T10:05:44.617Z,75.27
2022-11-09T10:08:24.946Z,74.16
2022-11-09T10:11:12.558Z,73.91
2022-11-09T10:14:04.335Z,73.67
2022-11-09T10:16:44.286Z,72.95
2022-11-09T10:19:37.844Z,74.03
2022-11-09T10:22:18.005Z,74.35
2022-11-09T10:25:20.797Z,73.91
2022-11-09T10:27:54.895Z,74.27
2022-11-09T10:30:30.728Z,72.60
2022-11-09T10:33:24.012Z,70.41
2022-11-09T10:36:07.909Z,69.89
2022-11-09T10:38:45.259Z,70.49
2022-11-09T10:41:42.157Z,69.51
2022-11-09T10:44:30.818Z,68.02
2022-11-09T10:47:22.712Z,64.21
2022-11-09T10:50:25.840Z,62.51
2022-11-09T10:53:19.719Z,61.75
2022-11-09T10:56:20.840Z,61.12
2022-11-09T10:59:45.337Z,60.19
2022-11-09T11:02:50.167Z,61.42
2022-11-09T11:05:39.980Z,61.08
2022-11-09T11:08:37.357Z,59.99
2022-11-09T11:11:34.952Z,61.21
2022-11-09T11:14:32.292Z,57.72
2022-11-09T11:17:26.597Z,56.35
2022-11-09T11:20:35.399Z,55.02
2022-11-09T11:23:26.693Z,54.88
2022-11-09T11:26:43.704Z,52.65
2022-11-09T11:29:46.760Z,50.83
2022-11-09T11:32:35.677Z,52.06
2022-11-09T11:35:43.289Z,53.29
2022-11-09T11:38:39.039Z,52.83
2022-11-09T11:42:11.565Z,53.41
2022-11-09T11:45:39.534Z,54.92
2022-11-09T11:48:56.888Z,58.88
2022-11-09T11:51:59.432Z,61.04
2022-11-09T11:55:21.450Z,63.06
2022-11-09T11:58:33.455Z,65.02
2022-11-09T12:01:42.251Z,67.86
2022-11-09T12:05:00.753Z,68.30
2022-11-09T12:08:02.247Z,69.64
2022-11-09T12:10:59.860Z,70.34
2022-11-09T12:14:06.317Z,71.05
2022-11-09T12:17:07.842Z,70.93
2022-11-09T12:20:25.663Z,70.37
2022-11-09T12:23:41.363Z,66.80
2022-11-09T12:26:47.735Z,61.05
2022-11-09T12:29:55.783Z,60.87
2022-11-09T12:32:53.563Z,61.25
2022-11-09T12:35:50.257Z,59.64
2022-11-09T12:38:55.950Z,59.77
2022-11-09T12:41:46.610Z,62.50
2022-11-09T12:44:40.094Z,64.37
2022-11-09T12:47:37.829Z,65.61
2022-11-09T12:50:29.340Z,66.38
2022-11-09T12:53:20.047Z,66.95
2022-11-09T12:56:22.168Z,67.53
2022-11-09T12:59:25.314Z,67.24
2022-11-09T13:02:31.880Z,67.09
2022-11-09T13:05:40.425Z,65.78
2022-11-09T13:08:32.959Z,64.72
2022-11-09T13:11:31.206Z,65.45
2022-11-09T13:14:40.763Z,65.65
2022-11-09T13:18:04.195Z,64.58
2022-11-09T13:20:58.489Z,63.89
2022-11-09T13:24:00.844Z,63.28
2022-11-09T13:27:05.752Z,63.31
2022-11-09T13:29:56.782Z,61.04
2022-11-09T13:33:21.842Z,59.81
2022-11-09T13:36:22.357Z,59.97
2022-11-09T13:39:31.108Z,59.48
2022-11-09T13:42:35.330Z,57.28
2022-11-09T13:45:36.389Z,57.22
2022-11-09T13:48:43.074Z,56.11
2022-11-09T13:51:47.983Z,55.60
2022-11-09T13:54:38.165Z,56.13
2022-11-09T13:57:31.394Z,56.81
2022-11-09T14:00:24.588Z,57.14
2022-11-09T14:03:25.051Z,56.54
2022-11-09T14:06:16.453Z,56.02
2022-11-09T14:09:07.277Z,56.83
2022-11-09T14:12:21.097Z,58.74
2022-11-09T14:15:36.219Z,59.49
2022-11-09T14:18:40.126Z,61.20
2022-11-09T14:21:49.140Z,61.39
2022-11-09T14:24:41.505Z,62.47
2022-11-09T14:27:30.375Z,63.30
2022-11-09T14:30:26.560Z,63.54
2022-11-09T14:33:25.459Z,63.53
2022-11-09T14:36:16.564Z,63.02
2022-11-09T14:39:10.067Z,63.85
2022-11-09T14:42:00.233Z,65.22
2022-11-09T14:44:50.471Z,66.48
2022-11-09T14:47:41.812Z,66.72
2022-11-09T14:50:34.731Z,67.36
2022-11-09T14:53:27.117Z,68.99
2022-11-09T14:56:20.087Z,70.04
2022-11-09T14:59:10.782Z,70.67
2022-11-09T15:02:06.758Z,71.48
2022-11-09T15:05:03.736Z,72.24
2022-11-09T15:07:52.710Z,72.97
2022-11-09T15:10:42.143Z,74.28
2022-11-09T15:13:36.050Z,75.46
2022-11-09T15:16:27.856Z,76.29
2022-11-09T15:19:31.914Z,77.35
2022-11-09T15:22:59.312Z,78.38
2022-11-09T15:25:58.684Z,79.08
2022-11-09T15:28:50.788Z,79.00
2022-11-09T15:31:40.292Z,79.68
2022-11-09T15:34:34.639Z,79.47
2022-11-09T15:37:28.704Z,79.88
2022-11-09T15:40:22.792Z,79.74
2022-11-09T15:43:11.923Z,80.45
2022-11-09T15:46:03.792Z,81.06
2022-11-09T15:48:52.871Z,80.88
2022-11-09T15:51:42.019Z,80.91
2022-11-09T15:54:32.385Z,81.18
2022-11-09T15:57:24.442Z,82.03
2022-11-09T16:00:20.746Z,81.85
2022-11-09T16:03:10.797Z,82.09
2022-11-09T16:05:59.752Z,82.39
2022-11-09T16:08:51.221Z,82.67
2022-11-09T16:11:39.871Z,83.12
2022-11-09T16:14:34.817Z,83.97
2022-11-09T16:17:23.605Z,84.06
2022-11-09T16:20:14.504Z,84.24
2022-11-09T16:23:03.356Z,83.78
2022-11-09T16:25:52.054Z,84.29
2022-11-09T16:28:41.791Z,84.49
2022-11-09T16:31:51.888Z,84.86
2022-11-09T16:34:40.788Z,85.04
2022-11-09T16:37:31.703Z,85.06
2022-11-09T16:40:21.115Z,86.00
2022-11-09T16:43:10.509Z,86.66
2022-11-09T16:45:59.565Z,85.90
2022-11-09T16:48:50.888Z,86.25
2022-11-09T16:51:40.019Z,86.49
2022-11-09T16:54:29.264Z,86.13
2022-11-09T16:57:18.701Z,86.79
2022-11-09T17:00:10.494Z,86.68
2022-11-09T17:02:59.646Z,86.60
2022-11-09T17:05:51.256Z,86.67
2022-11-09T17:08:40.014Z,86.86
2022-11-09T17:11:28.891Z,86.93
2022-11-09T17:14:17.823Z,87.04
2022-11-09T17:17:07.113Z,86.75
2022-11-09T17:19:56.304Z,86.36
2022-11-09T17:22:48.642Z,85.24
2022-11-09T17:25:38.175Z,86.18
2022-11-09T17:28:28.668Z,86.18
2022-11-09T17:31:21.185Z,85.14
2022-11-09T17:34:12.376Z,85.60
2022-11-09T17:37:04.715Z,85.81
2022-11-09T17:39:57.060Z,85.98
2022-11-09T17:42:46.295Z,86.50
2022-11-09T17:45:38.121Z,86.75
2022-11-09T17:48:27.508Z,87.53
2022-11-09T17:51:18.654Z,87.46
2022-11-09T17:54:08.345Z,86.53
2022-11-09T17:57:01.172Z,85.64
2022-11-09T17:59:50.409Z,85.71
2022-11-09T18:02:39.833Z,84.78
2022-11-09T18:05:29.231Z,85.25
2022-11-09T18:08:18.784Z,84.59
2022-11-09T18:11:09.124Z,84.22
2022-11-09T18:14:01.205Z,84.02
2022-11-09T18:16:50.208Z,83.81
2022-11-09T18:19:39.280Z,83.44
2022-11-09T18:22:28.158Z,83.67
2022-11-09T18:25:17.486Z,84.24
2022-11-09T18:28:06.295Z,84.74
2022-11-09T18:31:03.658Z,85.04
2022-11-09T18:33:53.579Z,86.10
2022-11-09T18:36:42.499Z,86.08
2022-11-09T18:39:32.798Z,86.39
2022-11-09T18:42:21.811Z,86.17
2022-11-09T18:45:13.437Z,86.38
2022-11-09T18:48:04.279Z,86.89
2022-11-09T18:50:54.528Z,87.63
2022-11-09T18:53:46.372Z,87.30
2022-11-09T18:56:35.260Z,87.93
2022-11-09T18:59:24.466Z,88.05
2022-11-09T19:02:16.237Z,88.05
2022-11-09T19:05:09.487Z,88.25
2022-11-09T19:07:59.541Z,88.59
2022-11-09T19:10:48.815Z,88.94
2022-11-09T19:13:37.900Z,89.52
2022-11-09T19:16:28.817Z,89.95
2022-11-09T19:19:19.122Z,89.27
2022-11-09T19:22:19.244Z,89.64
2022-11-09T19:25:09.677Z,89.96
2022-11-09T19:27:58.894Z,90.41
2022-11-09T19:30:47.887Z,90.17
2022-11-09T19:33:36.697Z,88.87
2022-11-09T19:36:30.959Z,89.21
2022-11-09T19:39:22.822Z,89.84
2022-11-09T19:42:11.832Z,89.63
2022-11-09T19:45:00.777Z,88.94
2022-11-09T19:47:51.916Z,89.48
2022-11-09T19:50:40.657Z,90.21
2022-11-09T19:53:30.462Z,91.28
2022-11-09T19:56:22.579Z,92.64
2022-11-09T19:59:16.718Z,94.48
2022-11-09T20:02:06.075Z,95.17
2022-11-09T20:04:55.046Z,96.59
2022-11-09T20:07:44.270Z,97.16
2022-11-09T20:10:33.450Z,98.61
2022-11-09T20:13:25.997Z,99.77
2022-11-09T20:16:15.261Z,100.00
2022-11-09T20:19:05.193Z,100.00
2022-11-09T20:21:54.250Z,100.00
2022-11-09T20:24:43.496Z,100.00
2022-11-09T20:27:32.912Z,100.00
2022-11-09T20:30:24.551Z,100.00
2022-11-09T20:33:13.741Z,100.00
2022-11-09T20:36:02.479Z,100.00
2022-11-09T20:38:52.009Z,100.00
2022-11-09T20:41:40.691Z,100.00
2022-11-09T20:44:29.682Z,100.00
2022-11-09T20:47:35.777Z,100.00
2022-11-09T20:50:30.914Z,100.00
2022-11-09T20:53:19.825Z,100.00
2022-11-09T20:56:09.623Z,100.00
2022-11-09T20:58:58.360Z,100.00
2022-11-09T21:01:47.191Z,100.00
2022-11-09T21:04:38.612Z,100.00
2022-11-09T21:07:27.753Z,100.00
2022-11-09T21:10:16.577Z,100.00
2022-11-09T21:13:05.789Z,100.00
2022-11-09T21:15:55.081Z,100.00
2022-11-09T21:18:44.495Z,100.00
2022-11-09T21:21:36.794Z,100.00
2022-11-09T21:24:38.049Z,100.00
2022-11-09T21:27:41.184Z,100.00
2022-11-09T21:30:34.936Z,100.00
2022-11-09T21:33:23.942Z,100.00
2022-11-09T21:36:15.214Z,100.00
2022-11-09T21:39:07.453Z,100.00
2022-11-09T21:41:56.433Z,100.00
2022-11-09T21:44:45.321Z,100.00
2022-11-09T21:47:34.819Z,100.00
2022-11-09T21:50:24.037Z,100.00
2022-11-09T21:53:12.906Z,100.00
2022-11-09T21:56:05.299Z,100.00
2022-11-09T21:58:54.481Z,100.00
2022-11-09T22:01:43.915Z,100.00
2022-11-09T22:04:33.234Z,100.00
2022-11-09T22:07:22.087Z,100.00
2022-11-09T22:10:12.740Z,100.00
2022-11-09T22:13:16.800Z,100.00
2022-11-09T22:16:10.690Z,100.00
2022-11-09T22:19:11.983Z,100.00
2022-11-09T22:22:00.735Z,100.00
2022-11-09T22:24:49.624Z,100.00
2022-11-09T22:27:38.876Z,100.00
2022-11-09T22:30:30.568Z,100.00
2022-11-09T22:33:25.892Z,100.00
2022-11-09T22:36:18.744Z,100.00
2022-11-09T22:39:07.866Z,100.00
2022-11-09T22:41:56.778Z,100.00
2022-11-09T22:44:45.732Z,100.00
2022-11-09T22:47:37.449Z,100.00
2022-11-09T22:50:26.177Z,100.00
2022-11-09T22:53:15.091Z,100.00
2022-11-09T22:56:06.253Z,100.00
2022-11-09T22:58:55.980Z,100.00
2022-11-09T23:01:45.202Z,100.00
2022-11-09T23:04:37.212Z,100.00
2022-11-09T23:07:26.302Z,100.00
2022-11-09T23:10:15.042Z,100.00
2022-11-09T23:13:05.238Z,100.00
2022-11-09T23:15:59.011Z,100.00
2022-11-09T23:18:58.017Z,100.00
2022-11-09T23:21:49.797Z,100.00
2022-11-09T23:24:51.130Z,100.00
2022-11-09T23:27:39.800Z,100.00
2022-11-09T23:30:29.609Z,100.00
2022-11-09T23:33:18.867Z,100.00
2022-11-09T23:36:11.937Z,100.00
2022-11-09T23:39:04.004Z,100.00
2022-11-09T23:41:52.780Z,100.00
2022-11-09T23:44:41.550Z,100.00
2022-11-09T23:47:30.172Z,100.00
2022-11-09T23:50:19.346Z,100.00
2022-11-09T23:53:08.779Z,100.00
2022-11-09T23:56:03.937Z,100.00
2022-11-09T23:58:52.715Z,100.00
